TimeCST,TemperatureF,Dew PointF,Humidity,Sea Level PressureIn,VisibilityMPH,Wind Direction,Wind SpeedMPH,Gust SpeedMPH,PrecipitationIn,Events,Conditions,WindDirDegrees,DateUTC
12:00 AM,72,61,59,29.83,12,East,6.9,,,,Scattered Clouds,80,2013-03-12 06:00:00
12:00 AM,71.6,60.8,69,29.99,6.2,East,6.9,-,N/A,,Partly Cloudy,80,2013-03-12 06:00:00
1:00 AM,71.6,60.8,69,29.98,6.2,NE,11.5,-,N/A,,Partly Cloudy,50,2013-03-12 07:00:00
2:00 AM,69.8,60.8,73,29.97,6.2,NE,5.8,-,N/A,,Partly Cloudy,40,2013-03-12 08:00:00
3:00 AM,71,60,60,29.80,12,East,9.2,,,,Scattered Clouds,100,2013-03-12 09:00:00
3:00 AM,69.8,60.8,73,29.96,6.2,ENE,5.8,-,N/A,,Partly Cloudy,70,2013-03-12 09:00:00
4:00 AM,69.8,60.8,73,29.95,6.2,ENE,8.1,-,N/A,,Partly Cloudy,70,2013-03-12 10:00:00
5:00 AM,69.8,60.8,73,29.96,6.2,East,9.2,-,N/A,,Partly Cloudy,100,2013-03-12 11:00:00
6:00 AM,70,60,63,29.81,12,NE,9.2,,,,Partly Cloudy,40,2013-03-12 12:00:00
6:00 AM,69.8,60.8,73,29.99,6.2,NE,9.2,-,N/A,,Scattered Clouds,40,2013-03-12 12:00:00
7:00 AM,73.4,60.8,65,30.00,-9999.0,NE,4.6,-,N/A,,Clear,50,2013-03-12 13:00:00
8:00 AM,77.0,60.8,57,30.02,-9999.0,ESE,13.8,-,N/A,,Clear,110,2013-03-12 14:00:00
9:00 AM,80,60,39,29.83,12,ESE,13.8,,,,Clear,110,2013-03-12 15:00:00
9:00 AM,78.8,59.0,51,30.03,-9999.0,ESE,13.8,25.3,N/A,,Clear,110,2013-03-12 15:00:00
10:00 AM,82.4,59.0,45,30.03,6.2,ESE,13.8,25.3,N/A,,Partly Cloudy,110,2013-03-12 16:00:00
11:00 AM,84.2,60.8,45,30.02,6.2,ESE,13.8,-,N/A,,Partly Cloudy,110,2013-03-12 17:00:00
12:00 PM,85,59,31,29.78,12,East,13.8,,,,Scattered Clouds,80,2013-03-12 18:00:00
12:00 PM,86.0,59.0,40,30.00,6.2,East,13.8,-,N/A,,Partly Cloudy,80,2013-03-12 18:00:00
1:00 PM,86.0,55.4,35,29.96,6.2,East,15.0,-,N/A,,Partly Cloudy,100,2013-03-12 19:00:00
2:00 PM,86.0,55.4,35,29.94,6.2,East,13.8,-,N/A,,Partly Cloudy,80,2013-03-12 20:00:00
3:00 PM,83,59,33,29.74,12,East,11.5,,,,Partly Cloudy,100,2013-03-12 21:00:00
3:00 PM,82.4,59.0,45,29.92,6.2,East,11.5,23.0,N/A,,Scattered Clouds,100,2013-03-12 21:00:00
4:00 PM,84.2,59.0,42,29.92,6.2,East,12.7,-,N/A,,Scattered Clouds,90,2013-03-12 22:00:00
5:00 PM,78.8,60.8,54,29.93,6.2,East,12.7,24.2,N/A,,Scattered Clouds,100,2013-03-12 23:00:00
6:00 PM,75,61,53,29.80,12,East,11.5,,,,Scattered Clouds,100,2013-03-13 00:00:00
6:00 PM,75.2,60.8,61,29.95,6.2,ESE,11.5,23.0,N/A,,Mostly Cloudy,110,2013-03-13 00:00:00
7:00 PM,73.4,60.8,65,29.97,-9999.0,ESE,6.9,-,N/A,,Clear,120,2013-03-13 01:00:00
8:00 PM,71.6,60.8,69,30.00,-9999.0,ESE,9.2,-,N/A,,Clear,110,2013-03-13 02:00:00
9:00 PM,72,62,62,29.85,12,East,10.4,,,,,100,2013-03-13 03:00:00
9:00 PM,71.6,62.6,73,30.02,-9999.0,East,10.4,-,N/A,,Clear,100,2013-03-13 03:00:00
10:00 PM,71.6,60.8,69,30.03,-9999.0,East,11.5,23.0,N/A,,Clear,90,2013-03-13 04:00:00
11:00 PM,71.6,60.8,69,30.03,-9999.0,East,10.4,-,N/A,,Clear,90,2013-03-13 05:00:00